AirNav   TITAN Aviation Fuels
 
 1088 users online  

7LA6 Southern Natural Gas Company Heliport
St Bernard, Louisiana, USA

GOING TO ST BERNARD?


FAA INFORMATION EFFECTIVE 16 JUNE 2022

Location

FAA Identifier: 7LA6
Lat/Long: 29-51-53.7400N 089-49-48.2290W
29-51.895667N 089-49.803817W
29.8649278,-89.8300636
(estimated)
Elevation: 5 ft. / 2 m (estimated)
Variation: 03E (1985)
From city: 2 miles E of ST BERNARD, LA
Time zone: UTC -5 (UTC -6 during Standard Time)
Zip code: 70085

Heliport Operations

Heliport use: Private use. Permission required prior to landing
Activation date: 02/1971
Control tower: no
ARTCC: HOUSTON CENTER
FSS: DE RIDDER FLIGHT SERVICE STATION
Attendance: MON-FRI 0800-1700
Wind indicator: no
Segmented circle: no

Heliport Communications

UNICOM: 123.05
WX ASOS at NEW (15 nm NW): PHONE 504-245-4366

Heliport Services

Airframe service: NONE
Powerplant service: NONE

Runway Information

Helipad H1

Dimensions: 500 x 20 ft. / 152 x 6 m
Surface: concrete/turf
Latitude: 29-51.895667N
Longitude: 089-49.803833W
Elevation: 5.0 ft.
Traffic pattern: leftleft

Heliport Ownership and Management from official FAA records

Ownership: Privately-owned
Owner: SOUTHERN NATURALGAS CO.
3800 65TH STREET NORTH
BIRMINGHAM, AL 35206
Phone 205-592-2101
Manager: STEVE A. VAN HOY
3800 65TH STREET NORTH
BIRMINGHAM, AL 35206
Phone 205-592-2101

Heliport Operational Statistics

Aircraft based on the field: 4
Helicopters: 4
    

Additional Remarks

A52-H1 RDO TWR AND HGR N
FOR CD CTC NEW ORLEANS APCH AT 504-471-4350.

Instrument Procedures

There are no published instrument procedures at 7LA6.

Some nearby airports with instrument procedures:

KNBG - New Orleans Naval Air Station Joint Reserve Base - Alvin Callender Field (10 nm W)
KNEW - Lakefront Airport (15 nm NW)
KMSY - Louis Armstrong New Orleans International Airport (24 nm W)
KASD - Slidell Airport (29 nm N)
KGAO - South Lafourche Leonard Miller Jr.. Airport (34 nm SW)
 
Loc | Ops | Rwys | IFR | FBO | Links
Com | Nav | Svcs | Stats | Notes
Area around 7LA6 (Southern Natural Gas Company Heliport)
 
Road maps at: MapQuest Bing Google
 
Aerial photo
No photo
 
Sectional chart

 
Airport distance calculator
Flying to Southern Natural Gas Company Heliport? Find the distance to fly.

From to 7LA6

Sunrise and sunset
Times for 02-Jul-2022
 Local
(UTC-5)
 Zulu
(UTC)
Morning civil twilight05:3610:36
Sunrise06:0311:03
Sunset20:0301:03
Evening civil twilight20:3001:30

Current date and time
Zulu (UTC)  02-Jul-2022 14:43:48
Local (UTC-5)  02-Jul-2022 09:43:48
 
METAR
KNBG 
10nm W 
021355Z 17004KT 10SM FEW029 SCT140 BKN250 29/25 A3003 RMK AO2 SLP169 CB DSNT W T02940250 $
K7N0 
14nm W 
021356Z AUTO VRB03KT 10SM CLR 30/24 A3004 RMK AO2 SLP172 T03000244
KNEW 
15nm NW 
021353Z 21005KT 10SM CLR 29/24 A3004 RMK AO2 SLP165 T02940239
TAF
KNBG 
10nm W 
0207/0307 22006KT 3200 BR VCSH FEW020CB BKN035 BKN120 OVC250 QNH2995INS BECMG 0210/0212 18006KT 9999 VCTS BKN030CB BKN100 OVC250 QNH2993INS TEMPO 0214/0220 VRB25G35KT 3200 TSRA BR BKN020CB BKN035 OVC120 BECMG 0220/0222 13010KT 9999 VCTS BKN030CB BKN100 OVC250 QNH2992INS TEMPO 0301/0306 VRB25G35KT 3200 TSRA BR BKN020CB BKN035 OVC120 AUTOMATED SENSOR METWATCH 0207 TIL 0212 T24/0211Z T31/0219Z FN00150
KNEW 
15nm NW 
021128Z 0212/0312 VRB04KT P6SM FEW020 FEW250 FM021400 21008KT P6SM VCSH SCT025 TEMPO 0219/0222 2SM TSRA BR BKN020CB FM030100 16006KT P6SM SCT020 BKN110
NOTAMs
Click for the latest NOTAMs
NOTAMs are issued by the DoD/FAA and will open in a separate window not controlled by AirNav.

 

 
 

Would you like to see your business listed on this page?

 If your business provides an interesting product or service to pilots, flight crews, aircraft, or users of the Southern Natural Gas Company Heliport, you should consider listing it here.  To start the listing process, click on the button below
 
Add a business
 

Other Pages about Southern Natural Gas Company Heliport

Update a link
 
Copyright © AirNav, LLC. All rights reserved. Privacy Policy  Contact